Time;durP1;ratioP1;P1;durP2;ratioP2;P2;SDS_P1;SDS_P2;PMS_P1;PMS_P2;Temp;Humidity;BMP_temperature;BMP_pressure;BME280_temperature;BME280_humidity;BME280_pressure;Samples;Min_cycle;Max_cycle;Signal;HPM_P1;HPM_P2
2022/12/20 00:01:20;;;;;;;4.57;3.10;;;;;;;9.14;91.09;101337.44;5055303;28;20033;-53
2022/12/20 00:03:50;;;;;;;5.68;3.38;;;;;;;9.11;90.98;101335.84;5037427;28;20113;-55
2022/12/20 00:06:16;;;;;;;8.88;3.38;;;;;;;9.11;91.21;101335.84;5048586;28;20036;-54
2022/12/20 00:08:41;;;;;;;6.93;3.60;;;;;;;9.11;91.18;101342.94;5052329;28;20029;-52
2022/12/20 00:11:08;;;;;;;6.03;3.78;;;;;;;9.12;90.96;101334.03;5054582;28;20555;-55
2022/12/20 00:13:34;;;;;;;5.70;3.60;;;;;;;9.14;91.01;101340.94;5054868;28;20128;-56
2022/12/20 00:16:10;;;;;;;10.18;3.97;;;;;;;9.19;90.70;101327.41;5043545;28;20049;-55
2022/12/20 00:18:37;;;;;;;6.43;3.70;;;;;;;9.22;90.55;101328.06;5043370;28;20140;-53
2022/12/20 00:21:05;;;;;;;10.02;3.83;;;;;;;9.24;90.28;101323.53;5049441;28;20033;-56
2022/12/20 00:23:32;;;;;;;8.40;3.90;;;;;;;9.28;90.40;101328.66;5054654;28;20118;-54
2022/12/20 00:26:07;;;;;;;10.35;4.85;;;;;;;9.31;89.94;101329.28;5053339;28;20035;-54
2022/12/20 00:28:34;;;;;;;9.20;4.00;;;;;;;9.32;89.98;101312.44;5044115;28;20490;-55
2022/12/20 00:30:59;;;;;;;7.82;3.70;;;;;;;9.33;89.90;101316.78;5054521;28;20029;-56
2022/12/20 00:33:25;;;;;;;8.57;4.22;;;;;;;9.34;89.92;101310.56;5054636;28;20033;-56
2022/12/20 00:35:51;;;;;;;10.45;4.10;;;;;;;9.40;89.53;101317.25;5053983;28;20536;-55
2022/12/20 00:38:16;;;;;;;8.05;3.85;;;;;;;9.42;89.31;101308.22;5054861;28;20033;-52
2022/12/20 00:40:41;;;;;;;12.30;3.78;;;;;;;9.47;89.32;101304.44;5054730;28;20021;-53
2022/12/20 00:43:07;;;;;;;7.55;3.80;;;;;;;9.47;89.14;101289.38;5045384;28;20036;-55
2022/12/20 00:45:32;;;;;;;8.95;4.10;;;;;;;9.50;89.09;101301.59;5050211;28;20025;-52
2022/12/20 00:47:57;;;;;;;5.90;3.80;;;;;;;9.53;89.00;101296.94;5045925;28;20028;-54
2022/12/20 00:50:22;;;;;;;9.10;3.88;;;;;;;9.54;89.02;101289.84;5039428;28;20025;-54
2022/12/20 00:52:48;;;;;;;5.93;3.80;;;;;;;9.60;88.59;101292.94;5046572;28;20140;-54
2022/12/20 00:55:13;;;;;;;6.30;3.60;;;;;;;9.65;88.45;101305.06;5049140;28;20029;-52
2022/12/20 00:57:39;;;;;;;5.97;3.28;;;;;;;9.65;88.83;101297.94;5053401;28;20078;-53
2022/12/20 01:00:05;;;;;;;5.85;3.33;;;;;;;9.67;88.99;101300.50;5040660;28;20040;-56
2022/12/20 01:02:31;;;;;;;4.28;2.85;;;;;;;9.67;89.63;101292.53;5046832;28;20021;-56
2022/12/20 01:04:56;;;;;;;4.35;2.92;;;;;;;9.69;90.58;101291.50;5053751;28;20039;-53
2022/12/20 01:07:23;;;;;;;4.10;2.88;;;;;;;9.66;92.57;101299.66;5048631;28;20108;-54
2022/12/20 01:09:48;;;;;;;4.18;2.95;;;;;;;9.65;93.02;101300.59;5043228;28;20044;-52
2022/12/20 01:12:14;;;;;;;8.32;3.45;;;;;;;9.61;93.72;101307.06;5036855;28;20029;-52
2022/12/20 01:14:39;;;;;;;4.93;3.15;;;;;;;9.57;94.31;101311.69;5051328;28;20051;-53
2022/12/20 01:17:05;;;;;;;6.25;3.28;;;;;;;9.54;94.90;101326.94;5054262;28;20415;-56
2022/12/20 01:19:31;;;;;;;6.60;3.20;;;;;;;9.52;94.96;101303.19;5041384;28;20447;-56
2022/12/20 01:21:56;;;;;;;4.82;2.88;;;;;;;9.54;95.63;101303.97;5047288;28;20037;-56
2022/12/20 01:24:21;;;;;;;5.82;2.90;;;;;;;9.51;96.89;101287.38;5034008;28;20112;-55
2022/12/20 01:26:47;;;;;;;6.10;3.08;;;;;;;9.46;97.96;101308.91;5034314;28;20025;-56
2022/12/20 01:29:13;;;;;;;6.47;3.10;;;;;;;9.40;99.06;101304.84;5047853;28;20112;-55
2022/12/20 01:31:39;;;;;;;3.60;3.20;;;;;;;9.36;100.00;101313.94;5053846;28;20037;-55
2022/12/20 01:34:04;;;;;;;5.13;3.17;;;;;;;9.32;100.00;101309.78;5053102;28;20091;-55
2022/12/20 01:36:34;;;;;;;4.57;3.00;;;;;;;9.29;100.00;101302.00;5053115;28;20037;-56
2022/12/20 01:39:12;;;;;;;7.13;3.63;;;;;;;9.25;100.00;101292.56;5040786;28;20371;-56
2022/12/20 01:41:38;;;;;;;10.60;3.85;;;;;;;9.22;100.00;101285.66;5050331;28;20033;-56
2022/12/20 01:44:25;;;;;;;5.93;3.70;;;;;;;9.19;100.00;101285.00;5042575;28;20033;-56
2022/12/20 01:46:51;;;;;;;4.95;3.45;;;;;;;9.16;100.00;101285.19;5053157;28;20039;-56
2022/12/20 01:49:19;;;;;;;4.82;3.17;;;;;;;9.12;100.00;101279.25;5052795;28;20033;-56
2022/12/20 01:51:52;;;;;;;6.75;3.65;;;;;;;9.12;100.00;101262.50;5053006;28;20040;-52
2022/12/20 01:54:29;;;;;;;4.53;3.50;;;;;;;9.08;100.00;101257.38;5048325;28;20094;-55
2022/12/20 01:56:59;;;;;;;4.90;3.50;;;;;;;9.08;100.00;101262.69;5040900;28;20062;-54
2022/12/20 01:59:26;;;;;;;5.22;3.58;;;;;;;9.05;100.00;101254.94;5052916;28;20090;-56
2022/12/20 02:01:51;;;;;;;8.07;3.40;;;;;;;9.05;100.00;101262.03;5053559;28;20078;-55
2022/12/20 02:04:17;;;;;;;4.80;3.40;;;;;;;9.03;100.00;101256.84;5052267;28;20037;-52
2022/12/20 02:06:42;;;;;;;6.82;3.85;;;;;;;9.00;100.00;101262.31;5052649;28;20062;-55
2022/12/20 02:09:08;;;;;;;5.03;3.22;;;;;;;9.00;100.00;101264.13;5052520;28;20036;-56
2022/12/20 02:11:54;;;;;;;8.32;3.90;;;;;;;8.99;100.00;101251.81;5049319;28;20025;-52
2022/12/20 02:15:01;;;;;;;10.48;4.43;;;;;;;8.98;100.00;101243.03;5053003;28;20483;-56
2022/12/20 02:17:39;;;;;;;9.88;4.75;;;;;;;8.97;100.00;101233.38;5052830;28;20037;-52
2022/12/20 02:20:46;;;;;;;10.35;4.28;;;;;;;8.97;100.00;101233.38;5053055;28;20075;-54
2022/12/20 02:23:48;;;;;;;8.00;3.90;;;;;;;8.97;100.00;101222.78;5043467;28;20090;-53
2022/12/20 02:26:47;;;;;;;6.97;3.10;;;;;;;8.96;100.00;101229.03;5042112;28;20060;-52
2022/12/20 02:29:28;;;;;;;8.02;3.55;;;;;;;8.94;100.00;101230.91;5046258;28;20030;-55
2022/12/20 02:32:18;;;;;;;4.90;3.70;;;;;;;8.94;100.00;101228.25;5046396;28;20037;-52
2022/12/20 02:34:44;;;;;;;6.47;3.35;;;;;;;8.92;100.00;101230.16;5045361;28;20036;-56
2022/12/20 02:37:10;;;;;;;5.30;3.10;;;;;;;8.92;100.00;101214.28;5052799;28;20021;-52
2022/12/20 02:39:37;;;;;;;4.45;3.17;;;;;;;8.92;100.00;101224.03;5052327;28;20033;-55
2022/12/20 02:42:06;;;;;;;4.70;2.80;;;;;;;8.92;100.00;101222.22;5052805;28;20033;-55
2022/12/20 02:47:29;;;;;;;5.75;3.00;;;;;;;8.93;100.00;101220.44;5053017;28;20125;-55
2022/12/20 02:49:56;;;;;;;4.15;2.70;;;;;;;8.94;100.00;101215.00;5056458;28;20114;-56
2022/12/20 02:52:25;;;;;;;4.38;3.05;;;;;;;8.95;100.00;101198.19;5056487;28;20036;-56
2022/12/20 02:54:51;;;;;;;5.13;3.30;;;;;;;8.96;100.00;101196.38;5043837;28;20043;-55
2022/12/20 02:57:48;;;;;;;4.95;3.25;;;;;;;8.96;100.00;101210.50;5052086;28;20116;-56
2022/12/20 03:00:18;;;;;;;3.97;3.00;;;;;;;8.97;100.00;101203.38;5046064;28;20067;-56
2022/12/20 03:05:31;;;;;;;4.22;2.50;;;;;;;9.04;100.00;101208.22;5037867;28;20056;-56
2022/12/20 03:07:57;;;;;;;4.28;2.72;;;;;;;9.04;100.00;101202.91;5055208;28;20071;-54
2022/12/20 03:10:23;;;;;;;3.60;2.78;;;;;;;9.05;100.00;101199.28;5047855;28;20360;-56
2022/12/20 03:12:48;;;;;;;4.43;2.80;;;;;;;9.09;100.00;101207.88;5053836;28;20025;-56
2022/12/20 03:15:13;;;;;;;3.92;2.60;;;;;;;9.12;100.00;101209.50;5056292;28;20487;-56
2022/12/20 03:17:38;;;;;;;4.53;2.90;;;;;;;9.15;100.00;101201.34;5055471;28;20028;-56
2022/12/20 03:20:05;;;;;;;4.93;3.00;;;;;;;9.17;100.00;101202.94;5056356;28;20036;-54
2022/12/20 03:22:32;;;;;;;4.90;2.83;;;;;;;9.20;100.00;101197.44;5056227;28;20036;-56
2022/12/20 03:24:58;;;;;;;3.25;2.75;;;;;;;9.23;100.00;101205.19;5054620;28;20017;-55
2022/12/20 03:27:24;;;;;;;3.90;2.70;;;;;;;9.28;100.00;101194.31;5055994;28;20553;-56
2022/12/20 03:29:50;;;;;;;3.67;2.55;;;;;;;9.33;100.00;101191.34;5044486;28;20387;-55
2022/12/20 03:32:15;;;;;;;3.30;2.40;;;;;;;9.37;100.00;101188.38;5054234;28;20025;-56
2022/12/20 03:34:40;;;;;;;6.70;2.70;;;;;;;9.37;100.00;101183.06;5055534;28;20459;-55
2022/12/20 03:37:06;;;;;;;3.83;2.53;;;;;;;9.40;100.00;101196.13;5044939;28;20025;-53
2022/12/20 03:39:31;;;;;;;5.25;2.70;;;;;;;9.42;100.00;101196.03;5055860;28;20375;-53
2022/12/20 03:41:56;;;;;;;4.18;2.72;;;;;;;9.42;100.00;101196.03;5050592;28;20053;-56
2022/12/20 03:44:23;;;;;;;3.75;2.63;;;;;;;9.43;100.00;101200.41;5047274;28;20115;-56
2022/12/20 03:46:49;;;;;;;3.85;2.78;;;;;;;9.46;100.00;101208.16;5051086;28;20037;-54
2022/12/20 03:49:14;;;;;;;7.20;2.67;;;;;;;9.45;100.00;101199.31;5037078;28;20497;-56
2022/12/20 03:51:39;;;;;;;4.95;2.80;;;;;;;9.48;100.00;101197.44;5054521;28;20029;-55
2022/12/20 03:54:06;;;;;;;6.03;2.70;;;;;;;9.53;100.00;101192.69;5054964;28;20029;-56
2022/12/20 03:56:31;;;;;;;5.57;2.60;;;;;;;9.57;100.00;101195.00;5053862;28;20024;-56
2022/12/20 03:58:56;;;;;;;4.18;2.53;;;;;;;9.59;100.00;101185.16;5044281;28;20038;-55
2022/12/20 04:01:25;;;;;;;4.07;2.80;;;;;;;9.66;100.00;101190.03;5041876;28;20434;-54
2022/12/20 04:03:50;;;;;;;3.67;2.65;;;;;;;9.70;99.77;101189.75;5044280;28;20053;-55
2022/12/20 04:06:16;;;;;;;4.40;2.78;;;;;;;9.72;99.72;101193.13;5052644;28;20048;-55
2022/12/20 04:08:41;;;;;;;3.45;2.38;;;;;;;9.78;98.97;101186.59;5055379;28;20109;-55
2022/12/20 04:11:16;;;;;;;5.28;2.58;;;;;;;9.77;99.19;101188.38;5055199;28;20037;-55
2022/12/20 04:13:52;;;;;;;5.43;2.70;;;;;;;9.76;99.40;101184.03;5055225;28;20458;-55
2022/12/20 04:16:21;;;;;;;3.65;2.70;;;;;;;9.81;98.70;101192.53;5054966;28;20037;-53
2022/12/20 04:18:47;;;;;;;3.00;2.35;;;;;;;9.82;98.43;101188.94;5054999;28;20398;-56
2022/12/20 04:21:12;;;;;;;6.07;2.80;;;;;;;9.82;98.58;101190.72;5055025;28;20051;-54
2022/12/20 04:23:40;;;;;;;4.85;2.63;;;;;;;9.83;98.53;101189.78;5053290;28;20025;-56
2022/12/20 04:26:07;;;;;;;2.90;2.30;;;;;;;9.89;97.62;101178.75;5054741;28;20025;-54
2022/12/20 04:28:33;;;;;;;5.18;2.63;;;;;;;9.94;97.68;101181.06;5054595;28;20614;-54
2022/12/20 04:30:59;;;;;;;3.63;2.50;;;;;;;9.93;97.63;101184.69;5054277;28;20029;-54
2022/12/20 04:33:25;;;;;;;3.75;2.90;;;;;;;9.93;97.65;101185.53;5054419;28;20029;-54
2022/12/20 04:35:51;;;;;;;5.65;2.80;;;;;;;9.94;97.75;101175.75;5047305;28;20030;-55
2022/12/20 04:38:17;;;;;;;3.25;2.40;;;;;;;9.95;97.47;101173.00;5049677;28;20064;-54
2022/12/20 04:40:43;;;;;;;4.95;2.53;;;;;;;10.00;97.25;101175.34;5053453;28;20023;-53
2022/12/20 04:43:08;;;;;;;3.78;2.10;;;;;;;9.99;97.24;101176.28;5048272;28;20477;-55
2022/12/20 04:45:34;;;;;;;4.80;2.67;;;;;;;10.00;97.11;101172.69;5053350;28;20025;-55
2022/12/20 04:47:59;;;;;;;3.60;2.20;;;;;;;10.02;97.09;101176.06;5054389;28;20032;-52
2022/12/20 04:50:25;;;;;;;4.55;2.45;;;;;;;10.02;96.89;101181.38;5054363;28;20494;-55
2022/12/20 04:55:38;;;;;;;2.88;2.45;;;;;;;10.00;97.36;101180.66;5052218;28;20150;-54
2022/12/20 04:58:05;;;;;;;5.03;2.70;;;;;;;9.99;97.35;101173.63;5054288;28;20090;-55
2022/12/20 05:00:31;;;;;;;5.32;2.72;;;;;;;9.99;97.62;101169.19;5045240;28;20148;-53
2022/12/20 05:02:56;;;;;;;5.25;2.75;;;;;;;10.01;97.54;101161.13;5054227;28;20499;-55
2022/12/20 05:05:22;;;;;;;3.60;2.38;;;;;;;10.01;97.65;101155.81;5054671;28;20033;-52
2022/12/20 05:07:47;;;;;;;4.85;2.53;;;;;;;10.04;97.67;101160.06;5053916;28;20110;-55
2022/12/20 05:10:12;;;;;;;3.72;2.70;;;;;;;10.04;97.72;101160.88;5053044;28;20407;-56
2022/12/20 05:12:38;;;;;;;3.60;2.65;;;;;;;10.04;97.75;101160.88;5053694;28;20040;-56
2022/12/20 05:15:03;;;;;;;3.70;2.58;;;;;;;10.04;97.99;101154.75;5054087;28;20041;-56
2022/12/20 05:17:29;;;;;;;5.38;2.33;;;;;;;10.04;98.18;101152.09;5053320;28;20123;-55
2022/12/20 05:19:54;;;;;;;3.60;2.38;;;;;;;10.05;98.19;101143.19;5054232;28;20044;-53
2022/12/20 05:27:47;;;;;;;2.75;2.33;;;;;;;10.07;98.22;101128.00;5042366;28;20043;-52
2022/12/20 05:30:14;;;;;;;6.10;2.63;;;;;;;10.05;98.13;101128.09;5053635;28;20029;-52
2022/12/20 05:32:40;;;;;;;3.00;2.58;;;;;;;10.05;98.33;101130.75;5045499;28;20032;-52
2022/12/20 05:35:05;;;;;;;2.90;2.55;;;;;;;10.06;98.06;101126.28;5053118;28;20024;-52
2022/12/20 05:37:31;;;;;;;4.07;2.60;;;;;;;10.05;98.33;101132.56;5053658;28;20017;-53
2022/12/20 05:39:56;;;;;;;2.72;2.35;;;;;;;10.06;98.40;101120.97;5044014;28;20049;-56
2022/12/20 05:42:21;;;;;;;4.30;2.28;;;;;;;10.05;98.25;101117.47;5053588;28;20017;-56
2022/12/20 05:44:46;;;;;;;4.97;2.50;;;;;;;10.04;98.24;101112.28;5040241;28;20040;-55
2022/12/20 05:47:12;;;;;;;4.10;2.30;;;;;;;10.02;98.47;101115.03;5053174;28;20033;-52
2022/12/20 05:49:37;;;;;;;2.72;2.30;;;;;;;10.01;98.23;101121.31;5045434;28;20029;-55
2022/12/20 05:52:02;;;;;;;3.53;2.20;;;;;;;10.01;98.39;101110.72;5053021;28;20051;-53
2022/12/20 05:54:28;;;;;;;3.70;2.30;;;;;;;10.02;98.10;101103.59;5053312;28;20120;-55
2022/12/20 05:56:53;;;;;;;3.38;2.25;;;;;;;9.99;98.36;101109.94;5053235;28;20082;-56
2022/12/20 05:59:18;;;;;;;3.47;2.10;;;;;;;10.00;97.87;101101.03;5052882;28;20470;-55
2022/12/20 06:01:44;;;;;;;3.47;2.10;;;;;;;9.98;97.73;101095.84;5052081;28;20021;-52
2022/12/20 06:04:09;;;;;;;3.70;1.92;;;;;;;9.98;97.78;101093.19;5052997;28;20459;-54
2022/12/20 06:06:34;;;;;;;3.00;2.05;;;;;;;9.98;97.73;101085.22;5040064;28;20032;-53
2022/12/20 06:09:00;;;;;;;2.28;1.90;;;;;;;9.97;97.58;101067.59;5052079;28;20485;-55
2022/12/20 06:11:25;;;;;;;4.20;2.22;;;;;;;10.02;97.18;101063.78;5052644;28;20035;-52
2022/12/20 06:13:50;;;;;;;3.47;2.40;;;;;;;10.02;96.98;101055.81;5040151;28;20041;-53
2022/12/20 06:16:18;;;;;;;4.47;2.47;;;;;;;10.02;96.61;101061.97;5052289;28;20094;-56
2022/12/20 06:18:43;;;;;;;3.15;1.75;;;;;;;9.99;96.73;101059.53;5053278;28;20033;-53
2022/12/20 06:21:09;;;;;;;4.53;2.35;;;;;;;10.01;95.87;101057.63;5051912;28;20025;-56
2022/12/20 06:23:34;;;;;;;2.70;1.95;;;;;;;9.99;95.79;101060.41;5039658;28;20034;-55
2022/12/20 06:26:00;;;;;;;4.97;2.50;;;;;;;10.00;95.56;101058.59;5051496;28;20371;-55
2022/12/20 06:28:25;;;;;;;5.20;2.10;;;;;;;9.99;95.27;101072.78;5052388;28;20455;-53
2022/12/20 06:30:55;;;;;;;3.30;1.95;;;;;;;9.96;95.15;101065.91;5052727;28;20029;-54
2022/12/20 06:33:20;;;;;;;3.40;2.10;;;;;;;9.95;94.95;101074.81;5052793;28;20036;-55
2022/12/20 06:35:48;;;;;;;3.42;2.10;;;;;;;9.96;94.64;101073.88;5052511;28;20025;-55
2022/12/20 06:38:13;;;;;;;3.53;2.13;;;;;;;9.94;94.89;101070.50;5039816;28;20061;-57
2022/12/20 06:40:38;;;;;;;3.55;2.28;;;;;;;9.94;94.46;101066.97;5052138;28;20083;-56
2022/12/20 06:43:03;;;;;;;3.97;2.22;;;;;;;9.94;93.75;101070.50;5052651;28;20033;-54
2022/12/20 06:45:29;;;;;;;3.25;2.15;;;;;;;9.94;94.00;101067.84;5039658;28;20029;-56
2022/12/20 06:47:56;;;;;;;3.25;1.77;;;;;;;9.92;93.71;101072.38;5053225;28;20035;-53
2022/12/20 06:50:22;;;;;;;2.20;2.00;;;;;;;9.93;93.53;101067.94;5046077;28;20083;-54
2022/12/20 06:52:47;;;;;;;2.72;2.10;;;;;;;9.94;93.18;101066.97;5046524;28;20471;-53
2022/12/20 06:55:12;;;;;;;3.13;1.85;;;;;;;9.93;93.15;101071.44;5052759;28;20091;-54
2022/12/20 06:57:38;;;;;;;2.15;1.80;;;;;;;9.93;92.94;101070.59;5051291;28;20451;-55
2022/12/20 07:00:04;;;;;;;2.03;1.67;;;;;;;9.92;92.90;101082.16;5039999;28;20037;-55
2022/12/20 07:02:30;;;;;;;3.05;2.10;;;;;;;9.91;92.44;101076.00;5038162;28;20021;-53
2022/12/20 07:04:56;;;;;;;4.95;2.10;;;;;;;9.94;92.43;101077.59;5044257;28;20108;-54
2022/12/20 07:07:21;;;;;;;3.75;2.00;;;;;;;9.95;92.37;101080.13;5042990;28;20040;-55
2022/12/20 07:09:47;;;;;;;2.33;2.00;;;;;;;9.97;92.06;101074.72;5037141;28;20040;-55
2022/12/20 07:12:12;;;;;;;3.80;1.88;;;;;;;9.95;92.11;101076.63;5027151;28;20387;-53
2022/12/20 07:14:37;;;;;;;4.05;2.00;;;;;;;9.94;92.22;101073.16;5037568;28;20072;-56
2022/12/20 07:17:04;;;;;;;3.70;2.05;;;;;;;9.95;92.07;101084.59;5039447;28;20124;-55
2022/12/20 07:19:30;;;;;;;4.43;2.20;;;;;;;9.95;91.35;101081.94;5036906;28;20433;-55
2022/12/20 07:21:55;;;;;;;4.55;1.80;;;;;;;9.96;91.69;101078.34;5048766;28;20067;-55
2022/12/20 07:24:21;;;;;;;3.55;2.00;;;;;;;9.96;91.62;101073.88;5047799;28;20026;-52
2022/12/20 07:26:46;;;;;;;3.67;1.98;;;;;;;9.99;91.16;101078.09;5049589;28;20166;-55
2022/12/20 07:29:12;;;;;;;5.43;2.00;;;;;;;9.98;91.25;101081.72;5046559;28;20031;-58
2022/12/20 07:31:38;;;;;;;5.55;2.33;;;;;;;10.02;90.92;101077.88;5046199;28;20044;-55
2022/12/20 07:34:03;;;;;;;2.40;1.83;;;;;;;10.01;90.86;101086.81;5046375;28;20036;-51
2022/12/20 07:36:29;;;;;;;3.70;2.00;;;;;;;10.02;91.03;101087.66;5048871;28;20040;-56
2022/12/20 07:38:54;;;;;;;2.83;2.20;;;;;;;10.02;90.89;101087.66;5051790;28;20111;-55
2022/12/20 07:41:19;;;;;;;3.70;1.90;;;;;;;10.00;90.75;101090.44;5049312;28;20044;-55
2022/12/20 07:43:45;;;;;;;3.40;2.08;;;;;;;10.01;90.70;101092.13;5050287;28;20106;-54
2022/12/20 07:46:13;;;;;;;2.22;1.70;;;;;;;10.05;90.05;101085.63;5050709;28;20407;-51
2022/12/20 07:48:39;;;;;;;4.10;2.00;;;;;;;10.05;90.46;101096.25;5051339;28;20036;-55
2022/12/20 07:51:12;;;;;;;5.53;2.00;;;;;;;10.05;90.29;101093.59;5048764;28;20620;-52
2022/12/20 07:53:44;;;;;;;2.08;1.65;;;;;;;10.07;90.10;101104.13;5047141;28;20032;-53
2022/12/20 07:56:11;;;;;;;4.43;1.98;;;;;;;10.09;89.84;101104.84;5047370;28;20029;-54
2022/12/20 07:58:39;;;;;;;3.28;1.90;;;;;;;10.08;90.58;101104.00;5051640;28;20102;-55
2022/12/20 08:01:05;;;;;;;4.05;1.70;;;;;;;10.07;91.53;101110.25;5040397;28;20428;-54
2022/12/20 08:03:38;;;;;;;5.35;2.00;;;;;;;10.06;92.35;101105.06;5041381;28;20102;-54
2022/12/20 08:06:06;;;;;;;3.30;2.05;;;;;;;10.03;93.34;101100.00;5044741;28;20032;-54
2022/12/20 08:08:33;;;;;;;4.50;2.38;;;;;;;9.98;94.39;101102.97;5049534;28;20116;-55
2022/12/20 08:10:59;;;;;;;2.42;2.15;;;;;;;9.97;94.31;101090.63;5049786;28;20403;-54
2022/12/20 08:13:24;;;;;;;2.97;2.50;;;;;;;9.92;95.15;101090.94;5052335;28;20032;-52
2022/12/20 08:15:50;;;;;;;4.80;1.85;;;;;;;9.91;95.39;101094.59;5051183;28;20020;-53
2022/12/20 08:18:15;;;;;;;3.35;1.88;;;;;;;9.94;94.50;101091.72;5052177;28;20028;-52
2022/12/20 08:20:40;;;;;;;2.58;1.90;;;;;;;9.92;95.79;101103.38;5052184;28;20090;-55
2022/12/20 08:23:06;;;;;;;6.35;2.10;;;;;;;9.89;96.41;101093.84;5045826;28;20031;-53
2022/12/20 08:25:33;;;;;;;4.88;2.10;;;;;;;9.88;97.03;101099.25;5030466;28;20032;-55
2022/12/20 08:28:01;;;;;;;3.15;1.95;;;;;;;9.85;97.66;101097.66;5051138;28;20390;-52
2022/12/20 08:30:27;;;;;;;4.03;2.20;;;;;;;9.81;98.66;101099.66;5044140;28;20048;-52
2022/12/20 08:32:52;;;;;;;3.85;2.00;;;;;;;9.79;99.25;101092.75;5043689;28;20468;-53
2022/12/20 08:35:17;;;;;;;3.50;2.25;;;;;;;9.76;99.61;101096.50;5038795;28;20033;-55
2022/12/20 08:37:43;;;;;;;4.53;2.30;;;;;;;9.73;99.95;101093.22;5043932;28;20032;-56
2022/12/20 08:40:08;;;;;;;2.47;1.98;;;;;;;9.71;100.00;101093.31;5049536;28;20566;-55
2022/12/20 08:42:34;;;;;;;6.05;2.30;;;;;;;9.67;100.00;101089.16;5050130;28;20398;-52
2022/12/20 08:44:59;;;;;;;4.40;2.17;;;;;;;9.65;100.00;101093.72;5049520;28;20108;-55
2022/12/20 08:47:25;;;;;;;4.03;2.22;;;;;;;9.64;100.00;101089.38;5050343;28;20020;-53
2022/12/20 08:49:50;;;;;;;3.70;2.33;;;;;;;9.63;100.00;101080.56;5049236;28;20104;-54
2022/12/20 08:52:15;;;;;;;5.65;2.22;;;;;;;9.61;100.00;101079.00;5050729;28;20110;-50
2022/12/20 08:54:41;;;;;;;4.25;2.20;;;;;;;9.60;100.00;101079.94;5047930;28;20060;-52
2022/12/20 08:57:07;;;;;;;3.55;2.42;;;;;;;9.54;100.00;101073.25;5051652;28;20029;-55
2022/12/20 08:59:32;;;;;;;3.92;2.60;;;;;;;9.53;100.00;101079.50;5044749;28;20471;-55
2022/12/20 09:01:58;;;;;;;6.63;2.63;;;;;;;9.50;100.00;101073.56;5039797;28;20037;-53
2022/12/20 09:04:23;;;;;;;5.65;2.65;;;;;;;9.46;100.00;101072.94;5037717;28;20025;-55
2022/12/20 09:06:48;;;;;;;5.13;2.33;;;;;;;9.42;100.00;101072.28;5040744;28;20036;-54
2022/12/20 09:09:15;;;;;;;6.15;2.80;;;;;;;9.40;100.00;101060.94;5032975;28;20093;-54
2022/12/20 09:11:40;;;;;;;5.30;2.70;;;;;;;9.38;100.00;101062.00;5038377;28;20067;-54
2022/12/20 09:14:07;;;;;;;4.90;2.75;;;;;;;9.37;100.00;101053.19;5043533;28;20470;-53
2022/12/20 09:16:32;;;;;;;5.18;2.80;;;;;;;9.35;100.00;101059.56;5040730;28;20367;-51
2022/12/20 09:19:00;;;;;;;3.85;2.63;;;;;;;9.34;100.00;101061.38;5038636;28;20449;-53
2022/12/20 09:21:25;;;;;;;6.97;2.78;;;;;;;9.33;100.00;101070.25;5041833;28;20037;-55
2022/12/20 09:23:52;;;;;;;8.90;2.90;;;;;;;9.33;100.00;101064.13;5052427;28;20029;-54
2022/12/20 09:26:19;;;;;;;5.38;2.90;;;;;;;9.32;100.00;101065.91;5052573;28;20524;-54
2022/12/20 09:28:45;;;;;;;4.38;2.78;;;;;;;9.34;100.00;101066.66;5052325;28;20475;-55
2022/12/20 09:31:13;;;;;;;6.35;3.20;;;;;;;9.35;100.00;101067.50;5052532;28;20025;-55
2022/12/20 09:33:39;;;;;;;5.30;2.92;;;;;;;9.37;100.00;101066.44;5051688;28;20025;-51
2022/12/20 09:36:06;;;;;;;5.32;2.95;;;;;;;9.38;100.00;101072.59;5052353;28;20448;-51
2022/12/20 09:38:32;;;;;;;5.80;2.92;;;;;;;9.39;100.00;101059.25;5050748;28;20055;-54
2022/12/20 09:41:01;;;;;;;7.45;3.15;;;;;;;9.41;100.00;101057.34;5051164;28;20028;-53
2022/12/20 09:43:27;;;;;;;4.82;3.10;;;;;;;9.43;100.00;101068.69;5049387;28;20452;-51
2022/12/20 09:45:58;;;;;;;4.88;2.50;;;;;;;9.45;100.00;101060.63;5050779;28;20111;-53
2022/12/20 09:48:44;;;;;;;5.30;2.40;;;;;;;9.50;100.00;101070.91;5050788;28;20039;-52
2022/12/20 09:51:09;;;;;;;5.70;2.65;;;;;;;9.52;100.00;101074.31;5049642;28;20029;-51
2022/12/20 09:53:58;;;;;;;5.00;2.83;;;;;;;9.53;100.00;101068.06;5045534;28;20028;-52
2022/12/20 09:56:28;;;;;;;4.75;2.85;;;;;;;9.53;100.00;101060.09;5057099;28;20037;-53
2022/12/20 09:59:14;;;;;;;3.97;2.60;;;;;;;9.56;100.00;101067.81;5052000;28;20036;-51
2022/12/20 10:01:49;;;;;;;4.15;2.70;;;;;;;9.56;100.00;101058.09;5051833;28;20139;-51
2022/12/20 10:04:20;;;;;;;5.25;3.28;;;;;;;9.58;100.00;101069.44;5051394;28;20025;-52
2022/12/20 10:07:04;;;;;;;5.75;3.03;;;;;;;9.59;100.00;101057.88;5041468;28;20025;-51
2022/12/20 10:09:48;;;;;;;6.90;2.50;;;;;;;9.62;100.00;101056.81;5047273;28;20063;-55
2022/12/20 10:12:39;;;;;;;4.53;2.75;;;;;;;9.68;100.00;101060.84;5044984;28;20055;-52
2022/12/20 10:15:14;;;;;;;4.50;2.60;;;;;;;9.69;100.00;101052.78;5041912;28;20071;-53
2022/12/20 10:17:57;;;;;;;3.53;2.72;;;;;;;9.71;100.00;101058.84;5047051;28;20021;-52
2022/12/20 10:20:37;;;;;;;6.85;2.58;;;;;;;9.79;100.00;101059.16;5045579;28;20061;-51
2022/12/20 10:23:14;;;;;;;4.65;2.38;;;;;;;9.80;100.00;101063.47;5051121;28;20082;-52
2022/12/20 10:25:40;;;;;;;3.75;2.30;;;;;;;9.86;100.00;101061.34;5051321;28;20455;-52
2022/12/20 10:28:14;;;;;;;5.57;2.50;;;;;;;9.89;100.00;101058.47;5051957;28;20112;-51
2022/12/20 10:30:40;;;;;;;5.88;2.70;;;;;;;9.91;100.00;101056.56;5052417;28;20095;-55
2022/12/20 10:33:16;;;;;;;5.32;2.50;;;;;;;9.92;100.00;101063.56;5051508;28;20475;-52
2022/12/20 10:35:42;;;;;;;4.30;2.60;;;;;;;9.93;100.00;101068.78;5051905;28;20088;-53
2022/12/20 10:38:11;;;;;;;3.97;2.83;;;;;;;9.92;100.00;101064.41;5052139;28;20056;-53
2022/12/20 10:41:00;;;;;;;4.25;2.78;;;;;;;9.91;100.00;101054.78;5050993;28;20048;-52
2022/12/20 10:43:26;;;;;;;7.03;3.30;;;;;;;9.88;100.00;101047.03;5051964;28;20044;-55
2022/12/20 10:46:02;;;;;;;5.18;3.00;;;;;;;9.86;100.00;101043.66;5052121;28;20071;-52
2022/12/20 10:48:36;;;;;;;6.45;3.35;;;;;;;9.85;100.00;101047.25;5051408;28;20374;-54
2022/12/20 10:51:11;;;;;;;6.38;3.33;;;;;;;9.82;100.00;101039.50;5052056;28;20028;-51
2022/12/20 10:54:11;;;;;;;4.75;3.53;;;;;;;9.81;100.00;101035.16;5048491;28;20100;-51
2022/12/20 10:56:36;;;;;;;6.40;3.50;;;;;;;9.79;100.00;101045.00;5051803;28;20037;-52
2022/12/20 10:59:30;;;;;;;6.75;4.00;;;;;;;9.78;100.00;101030.06;5050035;28;20390;-56
2022/12/20 11:01:55;;;;;;;6.18;3.72;;;;;;;9.75;100.00;101033.78;5032790;28;20121;-51
2022/12/20 11:04:34;;;;;;;7.43;3.95;;;;;;;9.71;100.00;101023.47;5040432;28;20120;-52
2022/12/20 11:07:02;;;;;;;4.90;3.55;;;;;;;9.71;100.00;101034.97;5039513;28;20549;-53
2022/12/20 11:09:36;;;;;;;5.50;3.28;;;;;;;9.68;100.00;101035.16;5033681;28;20068;-55
2022/12/20 11:12:04;;;;;;;8.00;3.88;;;;;;;9.68;100.00;101031.69;5050663;28;20360;-51
2022/12/20 11:14:31;;;;;;;6.25;3.15;;;;;;;9.67;100.00;101027.31;5050179;28;20056;-54
2022/12/20 11:16:59;;;;;;;5.88;3.67;;;;;;;9.65;100.00;101015.97;5054565;28;20476;-53
2022/12/20 11:19:48;;;;;;;5.95;3.53;;;;;;;9.67;100.00;101019.38;5041704;28;20042;-53
2022/12/20 11:22:14;;;;;;;7.55;3.40;;;;;;;9.67;100.00;101022.00;5046996;28;20091;-52
2022/12/20 11:24:53;;;;;;;8.43;4.13;;;;;;;9.66;100.00;101018.53;5045927;28;20044;-52
2022/12/20 11:27:39;;;;;;;5.32;3.20;;;;;;;9.66;100.00;101022.97;5053007;28;20482;-52
2022/12/20 11:30:13;;;;;;;6.57;3.67;;;;;;;9.65;100.00;101023.94;5046230;28;20036;-53
2022/12/20 11:32:51;;;;;;;9.23;3.50;;;;;;;9.65;100.00;101022.13;5044698;28;20025;-55
2022/12/20 11:35:23;;;;;;;6.20;3.65;;;;;;;9.62;100.00;101015.22;5050221;28;20033;-54
2022/12/20 11:37:54;;;;;;;8.70;3.72;;;;;;;9.64;100.00;101012.44;5051316;28;20032;-52
2022/12/20 11:40:31;;;;;;;10.82;3.78;;;;;;;9.63;100.00;101008.97;5042314;28;20052;-53
2022/12/20 11:43:02;;;;;;;5.20;4.10;;;;;;;9.62;100.00;101003.75;5045970;28;20044;-52
2022/12/20 11:45:35;;;;;;;8.38;4.10;;;;;;;9.62;100.00;101003.75;5043245;28;20041;-55
2022/12/20 11:48:31;;;;;;;8.57;3.80;;;;;;;9.61;100.00;100999.44;5050310;28;20044;-55